sensor_id;sensor_type;location;lat;lon;timestamp;P1;durP1;ratioP1;P2;durP2;ratioP2
80247;SDS011;69560;52.206;21.018;2023-09-30T00:02:27;19.10;;;14.40;;
80247;SDS011;69560;52.206;21.018;2023-09-30T00:04:54;23.60;;;14.90;;
80247;SDS011;69560;52.206;21.018;2023-09-30T00:07:20;20.70;;;14.00;;
80247;SDS011;69560;52.206;21.018;2023-09-30T00:09:47;14.60;;;12.40;;
80247;SDS011;69560;52.206;21.018;2023-09-30T00:12:14;18.40;;;14.10;;
80247;SDS011;69560;52.206;21.018;2023-09-30T00:14:40;21.50;;;14.60;;
80247;SDS011;69560;52.206;21.018;2023-09-30T00:17:07;19.00;;;13.80;;
80247;SDS011;69560;52.206;21.018;2023-09-30T00:19:33;19.80;;;14.10;;
80247;SDS011;69560;52.206;21.018;2023-09-30T00:22:00;23.60;;;14.30;;
80247;SDS011;69560;52.206;21.018;2023-09-30T00:24:27;18.50;;;14.00;;
80247;SDS011;69560;52.206;21.018;2023-09-30T00:26:53;36.90;;;31.60;;
80247;SDS011;69560;52.206;21.018;2023-09-30T00:29:20;36.40;;;27.00;;
80247;SDS011;69560;52.206;21.018;2023-09-30T00:31:47;29.70;;;23.70;;
80247;SDS011;69560;52.206;21.018;2023-09-30T00:34:14;24.40;;;17.00;;
80247;SDS011;69560;52.206;21.018;2023-09-30T00:36:40;29.50;;;22.30;;
80247;SDS011;69560;52.206;21.018;2023-09-30T00:39:07;29.10;;;22.50;;
80247;SDS011;69560;52.206;21.018;2023-09-30T00:41:34;21.20;;;17.10;;
80247;SDS011;69560;52.206;21.018;2023-09-30T00:44:01;19.90;;;14.40;;
80247;SDS011;69560;52.206;21.018;2023-09-30T00:46:32;20.00;;;14.20;;
80247;SDS011;69560;52.206;21.018;2023-09-30T00:48:59;18.50;;;14.00;;
80247;SDS011;69560;52.206;21.018;2023-09-30T00:51:28;21.90;;;15.90;;
80247;SDS011;69560;52.206;21.018;2023-09-30T00:53:58;17.30;;;13.70;;
80247;SDS011;69560;52.206;21.018;2023-09-30T00:56:26;19.60;;;14.40;;
80247;SDS011;69560;52.206;21.018;2023-09-30T00:58:54;17.50;;;13.80;;
80247;SDS011;69560;52.206;21.018;2023-09-30T01:01:22;19.20;;;13.80;;
80247;SDS011;69560;52.206;21.018;2023-09-30T01:03:49;23.00;;;14.60;;
80247;SDS011;69560;52.206;21.018;2023-09-30T01:06:16;18.80;;;14.00;;
80247;SDS011;69560;52.206;21.018;2023-09-30T01:08:43;22.20;;;14.20;;
80247;SDS011;69560;52.206;21.018;2023-09-30T01:11:09;17.70;;;14.30;;
80247;SDS011;69560;52.206;21.018;2023-09-30T01:13:37;19.80;;;13.80;;
80247;SDS011;69560;52.206;21.018;2023-09-30T01:16:08;20.00;;;14.10;;
80247;SDS011;69560;52.206;21.018;2023-09-30T01:18:36;20.10;;;13.90;;
80247;SDS011;69560;52.206;21.018;2023-09-30T01:21:04;20.00;;;14.20;;
80247;SDS011;69560;52.206;21.018;2023-09-30T01:23:32;20.60;;;13.90;;
80247;SDS011;69560;52.206;21.018;2023-09-30T01:26:08;21.10;;;14.10;;
80247;SDS011;69560;52.206;21.018;2023-09-30T01:28:38;17.60;;;13.70;;
80247;SDS011;69560;52.206;21.018;2023-09-30T01:31:05;18.50;;;14.50;;
80247;SDS011;69560;52.206;21.018;2023-09-30T01:33:32;24.00;;;14.50;;
80247;SDS011;69560;52.206;21.018;2023-09-30T01:36:00;20.60;;;13.90;;
80247;SDS011;69560;52.206;21.018;2023-09-30T01:38:27;18.60;;;14.40;;
80247;SDS011;69560;52.206;21.018;2023-09-30T01:40:53;20.40;;;14.20;;
80247;SDS011;69560;52.206;21.018;2023-09-30T01:43:20;15.40;;;13.30;;
80247;SDS011;69560;52.206;21.018;2023-09-30T01:45:47;19.80;;;14.10;;
80247;SDS011;69560;52.206;21.018;2023-09-30T01:48:14;21.10;;;14.90;;
80247;SDS011;69560;52.206;21.018;2023-09-30T01:50:40;20.50;;;14.50;;
80247;SDS011;69560;52.206;21.018;2023-09-30T01:53:07;18.70;;;14.30;;
80247;SDS011;69560;52.206;21.018;2023-09-30T01:55:35;23.20;;;14.20;;
80247;SDS011;69560;52.206;21.018;2023-09-30T01:58:03;21.80;;;14.30;;
80247;SDS011;69560;52.206;21.018;2023-09-30T02:00:30;17.90;;;14.20;;
80247;SDS011;69560;52.206;21.018;2023-09-30T02:02:56;20.30;;;14.00;;
80247;SDS011;69560;52.206;21.018;2023-09-30T02:05:24;17.60;;;14.10;;
80247;SDS011;69560;52.206;21.018;2023-09-30T02:07:50;19.20;;;13.90;;
80247;SDS011;69560;52.206;21.018;2023-09-30T02:10:17;22.90;;;14.10;;
80247;SDS011;69560;52.206;21.018;2023-09-30T02:12:45;21.90;;;14.30;;
80247;SDS011;69560;52.206;21.018;2023-09-30T02:15:12;21.40;;;13.90;;
80247;SDS011;69560;52.206;21.018;2023-09-30T02:17:40;20.90;;;14.80;;
80247;SDS011;69560;52.206;21.018;2023-09-30T02:20:11;21.00;;;14.20;;
80247;SDS011;69560;52.206;21.018;2023-09-30T02:22:39;21.00;;;14.40;;
80247;SDS011;69560;52.206;21.018;2023-09-30T02:25:05;18.40;;;13.50;;
80247;SDS011;69560;52.206;21.018;2023-09-30T02:27:34;18.90;;;15.00;;
80247;SDS011;69560;52.206;21.018;2023-09-30T02:30:00;18.70;;;14.10;;
80247;SDS011;69560;52.206;21.018;2023-09-30T02:32:27;21.70;;;15.00;;
80247;SDS011;69560;52.206;21.018;2023-09-30T02:34:54;20.70;;;14.50;;
80247;SDS011;69560;52.206;21.018;2023-09-30T02:37:20;17.70;;;14.00;;
80247;SDS011;69560;52.206;21.018;2023-09-30T02:39:47;18.50;;;14.40;;
80247;SDS011;69560;52.206;21.018;2023-09-30T02:42:13;19.00;;;14.60;;
80247;SDS011;69560;52.206;21.018;2023-09-30T02:44:40;18.00;;;13.70;;
80247;SDS011;69560;52.206;21.018;2023-09-30T02:47:06;15.90;;;13.50;;
80247;SDS011;69560;52.206;21.018;2023-09-30T02:49:33;20.50;;;13.50;;
80247;SDS011;69560;52.206;21.018;2023-09-30T02:52:01;17.30;;;13.50;;
80247;SDS011;69560;52.206;21.018;2023-09-30T02:54:28;18.10;;;14.10;;
80247;SDS011;69560;52.206;21.018;2023-09-30T02:56:57;20.10;;;13.90;;
80247;SDS011;69560;52.206;21.018;2023-09-30T02:59:24;18.40;;;13.70;;
80247;SDS011;69560;52.206;21.018;2023-09-30T03:01:51;19.10;;;13.90;;
80247;SDS011;69560;52.206;21.018;2023-09-30T03:04:18;19.00;;;14.20;;
80247;SDS011;69560;52.206;21.018;2023-09-30T03:06:46;22.50;;;14.30;;
80247;SDS011;69560;52.206;21.018;2023-09-30T03:09:12;16.90;;;13.80;;
80247;SDS011;69560;52.206;21.018;2023-09-30T03:11:41;16.90;;;13.90;;
80247;SDS011;69560;52.206;21.018;2023-09-30T03:14:10;20.20;;;13.80;;
80247;SDS011;69560;52.206;21.018;2023-09-30T03:16:38;21.20;;;14.30;;
80247;SDS011;69560;52.206;21.018;2023-09-30T03:19:07;21.30;;;13.50;;
80247;SDS011;69560;52.206;21.018;2023-09-30T03:21:38;19.70;;;14.70;;
80247;SDS011;69560;52.206;21.018;2023-09-30T03:24:04;18.50;;;13.00;;
80247;SDS011;69560;52.206;21.018;2023-09-30T03:26:34;17.70;;;13.90;;
80247;SDS011;69560;52.206;21.018;2023-09-30T03:29:01;16.50;;;14.30;;
80247;SDS011;69560;52.206;21.018;2023-09-30T03:31:29;15.10;;;12.90;;
80247;SDS011;69560;52.206;21.018;2023-09-30T03:33:56;16.20;;;14.50;;
80247;SDS011;69560;52.206;21.018;2023-09-30T03:36:22;17.00;;;13.60;;
80247;SDS011;69560;52.206;21.018;2023-09-30T03:38:52;23.00;;;14.50;;
80247;SDS011;69560;52.206;21.018;2023-09-30T03:41:25;19.50;;;14.40;;
80247;SDS011;69560;52.206;21.018;2023-09-30T03:43:51;15.90;;;13.50;;
80247;SDS011;69560;52.206;21.018;2023-09-30T03:46:18;19.00;;;14.80;;
80247;SDS011;69560;52.206;21.018;2023-09-30T03:48:45;17.70;;;13.30;;
80247;SDS011;69560;52.206;21.018;2023-09-30T03:51:11;20.50;;;13.60;;
80247;SDS011;69560;52.206;21.018;2023-09-30T03:53:43;19.80;;;12.80;;
80247;SDS011;69560;52.206;21.018;2023-09-30T03:56:11;15.10;;;13.20;;
80247;SDS011;69560;52.206;21.018;2023-09-30T03:58:39;19.10;;;12.90;;
80247;SDS011;69560;52.206;21.018;2023-09-30T04:01:08;18.10;;;13.30;;
80247;SDS011;69560;52.206;21.018;2023-09-30T04:03:46;17.80;;;13.80;;
80247;SDS011;69560;52.206;21.018;2023-09-30T04:06:13;19.80;;;14.30;;
80247;SDS011;69560;52.206;21.018;2023-09-30T04:08:39;17.30;;;12.90;;
80247;SDS011;69560;52.206;21.018;2023-09-30T04:11:06;22.00;;;13.90;;
80247;SDS011;69560;52.206;21.018;2023-09-30T04:13:33;24.00;;;13.70;;
80247;SDS011;69560;52.206;21.018;2023-09-30T04:15:59;22.10;;;14.40;;
80247;SDS011;69560;52.206;21.018;2023-09-30T04:18:26;15.90;;;12.90;;
80247;SDS011;69560;52.206;21.018;2023-09-30T04:20:53;14.30;;;12.80;;
80247;SDS011;69560;52.206;21.018;2023-09-30T04:23:19;18.60;;;13.50;;
80247;SDS011;69560;52.206;21.018;2023-09-30T04:25:48;19.30;;;14.20;;
80247;SDS011;69560;52.206;21.018;2023-09-30T04:28:15;22.10;;;14.00;;
80247;SDS011;69560;52.206;21.018;2023-09-30T04:30:49;17.20;;;13.30;;
80247;SDS011;69560;52.206;21.018;2023-09-30T04:33:17;16.10;;;12.90;;
80247;SDS011;69560;52.206;21.018;2023-09-30T04:35:43;22.70;;;13.70;;
80247;SDS011;69560;52.206;21.018;2023-09-30T04:38:11;16.50;;;13.10;;
80247;SDS011;69560;52.206;21.018;2023-09-30T04:40:38;19.20;;;13.20;;
80247;SDS011;69560;52.206;21.018;2023-09-30T04:43:05;18.80;;;13.10;;
80247;SDS011;69560;52.206;21.018;2023-09-30T04:45:31;19.10;;;13.50;;
80247;SDS011;69560;52.206;21.018;2023-09-30T04:47:59;15.70;;;13.30;;
80247;SDS011;69560;52.206;21.018;2023-09-30T04:50:25;20.40;;;14.00;;
80247;SDS011;69560;52.206;21.018;2023-09-30T04:52:52;15.80;;;12.80;;
80247;SDS011;69560;52.206;21.018;2023-09-30T04:55:19;19.10;;;13.30;;
80247;SDS011;69560;52.206;21.018;2023-09-30T04:57:46;19.50;;;13.20;;
80247;SDS011;69560;52.206;21.018;2023-09-30T05:00:17;19.50;;;13.70;;
80247;SDS011;69560;52.206;21.018;2023-09-30T05:02:48;17.10;;;13.00;;
80247;SDS011;69560;52.206;21.018;2023-09-30T05:05:14;20.80;;;13.70;;
80247;SDS011;69560;52.206;21.018;2023-09-30T05:07:41;16.90;;;12.90;;
80247;SDS011;69560;52.206;21.018;2023-09-30T05:10:08;24.60;;;13.30;;
80247;SDS011;69560;52.206;21.018;2023-09-30T05:12:39;17.90;;;13.00;;
80247;SDS011;69560;52.206;21.018;2023-09-30T05:15:14;16.00;;;13.20;;
80247;SDS011;69560;52.206;21.018;2023-09-30T05:17:42;16.60;;;13.60;;
80247;SDS011;69560;52.206;21.018;2023-09-30T05:20:12;19.60;;;13.80;;
80247;SDS011;69560;52.206;21.018;2023-09-30T05:22:39;18.70;;;12.90;;
80247;SDS011;69560;52.206;21.018;2023-09-30T05:25:12;19.20;;;12.90;;
80247;SDS011;69560;52.206;21.018;2023-09-30T05:27:46;17.90;;;12.90;;
80247;SDS011;69560;52.206;21.018;2023-09-30T05:30:15;17.90;;;13.40;;
80247;SDS011;69560;52.206;21.018;2023-09-30T05:32:42;20.50;;;12.30;;
80247;SDS011;69560;52.206;21.018;2023-09-30T05:35:09;17.20;;;12.60;;
80247;SDS011;69560;52.206;21.018;2023-09-30T05:37:39;15.10;;;12.40;;
80247;SDS011;69560;52.206;21.018;2023-09-30T05:40:06;19.50;;;12.00;;
80247;SDS011;69560;52.206;21.018;2023-09-30T05:42:44;15.50;;;11.50;;
80247;SDS011;69560;52.206;21.018;2023-09-30T05:45:10;15.70;;;11.90;;
80247;SDS011;69560;52.206;21.018;2023-09-30T05:47:41;16.00;;;11.30;;
80247;SDS011;69560;52.206;21.018;2023-09-30T05:50:08;15.30;;;12.10;;
80247;SDS011;69560;52.206;21.018;2023-09-30T05:52:35;17.50;;;12.50;;
80247;SDS011;69560;52.206;21.018;2023-09-30T05:55:03;16.80;;;11.80;;
80247;SDS011;69560;52.206;21.018;2023-09-30T05:57:30;19.10;;;12.00;;
80247;SDS011;69560;52.206;21.018;2023-09-30T05:59:57;14.30;;;11.80;;
80247;SDS011;69560;52.206;21.018;2023-09-30T06:02:24;14.00;;;11.70;;
80247;SDS011;69560;52.206;21.018;2023-09-30T06:04:51;16.70;;;12.10;;
80247;SDS011;69560;52.206;21.018;2023-09-30T06:07:19;17.50;;;12.30;;
80247;SDS011;69560;52.206;21.018;2023-09-30T06:09:46;14.90;;;12.20;;
80247;SDS011;69560;52.206;21.018;2023-09-30T06:12:16;14.40;;;12.40;;
80247;SDS011;69560;52.206;21.018;2023-09-30T06:14:42;13.30;;;11.60;;
80247;SDS011;69560;52.206;21.018;2023-09-30T06:17:10;16.00;;;11.60;;
80247;SDS011;69560;52.206;21.018;2023-09-30T06:19:36;13.70;;;11.50;;
80247;SDS011;69560;52.206;21.018;2023-09-30T06:22:03;12.70;;;10.30;;
80247;SDS011;69560;52.206;21.018;2023-09-30T06:24:31;15.10;;;10.70;;
80247;SDS011;69560;52.206;21.018;2023-09-30T06:26:57;13.70;;;10.70;;
80247;SDS011;69560;52.206;21.018;2023-09-30T06:29:23;14.30;;;10.40;;
80247;SDS011;69560;52.206;21.018;2023-09-30T06:31:50;13.50;;;10.80;;
80247;SDS011;69560;52.206;21.018;2023-09-30T06:34:17;15.20;;;10.10;;
80247;SDS011;69560;52.206;21.018;2023-09-30T06:36:43;13.90;;;10.30;;
80247;SDS011;69560;52.206;21.018;2023-09-30T06:39:10;11.70;;;10.50;;
80247;SDS011;69560;52.206;21.018;2023-09-30T06:41:37;11.30;;;9.60;;
80247;SDS011;69560;52.206;21.018;2023-09-30T06:44:05;11.60;;;9.60;;
80247;SDS011;69560;52.206;21.018;2023-09-30T06:46:32;16.60;;;10.20;;
80247;SDS011;69560;52.206;21.018;2023-09-30T06:48:58;13.20;;;10.30;;
80247;SDS011;69560;52.206;21.018;2023-09-30T06:51:25;12.60;;;9.80;;
80247;SDS011;69560;52.206;21.018;2023-09-30T06:53:53;12.10;;;10.30;;
80247;SDS011;69560;52.206;21.018;2023-09-30T06:56:19;13.00;;;10.50;;
80247;SDS011;69560;52.206;21.018;2023-09-30T06:58:46;14.60;;;10.10;;
80247;SDS011;69560;52.206;21.018;2023-09-30T07:01:15;14.90;;;10.10;;
80247;SDS011;69560;52.206;21.018;2023-09-30T07:03:43;12.00;;;9.90;;
80247;SDS011;69560;52.206;21.018;2023-09-30T07:06:10;15.20;;;10.10;;
80247;SDS011;69560;52.206;21.018;2023-09-30T07:08:36;18.90;;;11.60;;
80247;SDS011;69560;52.206;21.018;2023-09-30T07:11:03;12.90;;;10.50;;
80247;SDS011;69560;52.206;21.018;2023-09-30T07:13:31;13.90;;;10.70;;
80247;SDS011;69560;52.206;21.018;2023-09-30T07:15:58;13.40;;;11.00;;
80247;SDS011;69560;52.206;21.018;2023-09-30T07:18:24;11.90;;;10.10;;
80247;SDS011;69560;52.206;21.018;2023-09-30T07:20:51;15.50;;;11.10;;
80247;SDS011;69560;52.206;21.018;2023-09-30T07:23:19;12.30;;;10.50;;
80247;SDS011;69560;52.206;21.018;2023-09-30T07:25:46;14.70;;;11.30;;
80247;SDS011;69560;52.206;21.018;2023-09-30T07:28:13;15.70;;;11.30;;
80247;SDS011;69560;52.206;21.018;2023-09-30T07:30:39;16.30;;;12.20;;
80247;SDS011;69560;52.206;21.018;2023-09-30T07:33:06;17.30;;;12.00;;
80247;SDS011;69560;52.206;21.018;2023-09-30T07:35:33;17.10;;;11.60;;
80247;SDS011;69560;52.206;21.018;2023-09-30T07:38:00;14.70;;;11.40;;
80247;SDS011;69560;52.206;21.018;2023-09-30T07:40:27;14.50;;;11.60;;
80247;SDS011;69560;52.206;21.018;2023-09-30T07:42:54;14.20;;;11.60;;
80247;SDS011;69560;52.206;21.018;2023-09-30T07:45:21;14.20;;;11.90;;
80247;SDS011;69560;52.206;21.018;2023-09-30T07:47:47;13.50;;;11.60;;
80247;SDS011;69560;52.206;21.018;2023-09-30T07:50:15;17.30;;;12.10;;
80247;SDS011;69560;52.206;21.018;2023-09-30T07:52:42;16.10;;;12.10;;
80247;SDS011;69560;52.206;21.018;2023-09-30T07:55:08;19.70;;;12.30;;
80247;SDS011;69560;52.206;21.018;2023-09-30T07:57:36;14.20;;;11.90;;
80247;SDS011;69560;52.206;21.018;2023-09-30T08:00:03;19.40;;;12.10;;
80247;SDS011;69560;52.206;21.018;2023-09-30T08:02:35;16.40;;;12.60;;
80247;SDS011;69560;52.206;21.018;2023-09-30T08:05:02;18.40;;;13.40;;
80247;SDS011;69560;52.206;21.018;2023-09-30T08:07:29;17.50;;;13.30;;
80247;SDS011;69560;52.206;21.018;2023-09-30T08:09:55;14.30;;;12.50;;
80247;SDS011;69560;52.206;21.018;2023-09-30T08:12:22;14.80;;;12.90;;
80247;SDS011;69560;52.206;21.018;2023-09-30T08:14:49;19.10;;;12.30;;
80247;SDS011;69560;52.206;21.018;2023-09-30T08:17:17;17.20;;;13.00;;
80247;SDS011;69560;52.206;21.018;2023-09-30T08:19:44;17.50;;;12.90;;
80247;SDS011;69560;52.206;21.018;2023-09-30T08:22:10;16.40;;;13.60;;
80247;SDS011;69560;52.206;21.018;2023-09-30T08:24:37;18.60;;;13.80;;
80247;SDS011;69560;52.206;21.018;2023-09-30T08:27:04;16.40;;;13.70;;
80247;SDS011;69560;52.206;21.018;2023-09-30T08:29:34;18.10;;;14.10;;
80247;SDS011;69560;52.206;21.018;2023-09-30T08:32:04;18.60;;;13.60;;
80247;SDS011;69560;52.206;21.018;2023-09-30T08:34:31;16.90;;;13.80;;
80247;SDS011;69560;52.206;21.018;2023-09-30T08:36:58;18.40;;;14.30;;
80247;SDS011;69560;52.206;21.018;2023-09-30T08:39:24;16.50;;;14.80;;
80247;SDS011;69560;52.206;21.018;2023-09-30T08:41:51;18.70;;;14.10;;
80247;SDS011;69560;52.206;21.018;2023-09-30T08:44:20;17.20;;;14.20;;
80247;SDS011;69560;52.206;21.018;2023-09-30T08:46:46;18.10;;;14.20;;
80247;SDS011;69560;52.206;21.018;2023-09-30T08:49:14;20.00;;;13.90;;
80247;SDS011;69560;52.206;21.018;2023-09-30T08:51:41;20.30;;;15.10;;
80247;SDS011;69560;52.206;21.018;2023-09-30T08:54:09;16.90;;;14.80;;
80247;SDS011;69560;52.206;21.018;2023-09-30T08:56:36;18.30;;;16.30;;
80247;SDS011;69560;52.206;21.018;2023-09-30T08:59:05;17.00;;;14.90;;
80247;SDS011;69560;52.206;21.018;2023-09-30T09:01:32;18.10;;;14.80;;
80247;SDS011;69560;52.206;21.018;2023-09-30T09:04:00;16.10;;;14.40;;
80247;SDS011;69560;52.206;21.018;2023-09-30T09:06:27;19.20;;;14.50;;
80247;SDS011;69560;52.206;21.018;2023-09-30T09:08:53;20.00;;;15.60;;
80247;SDS011;69560;52.206;21.018;2023-09-30T09:11:20;19.40;;;15.70;;
80247;SDS011;69560;52.206;21.018;2023-09-30T09:13:49;20.70;;;15.70;;
80247;SDS011;69560;52.206;21.018;2023-09-30T09:16:16;20.30;;;16.60;;
80247;SDS011;69560;52.206;21.018;2023-09-30T09:18:45;19.30;;;16.20;;
80247;SDS011;69560;52.206;21.018;2023-09-30T09:21:17;16.90;;;15.10;;
80247;SDS011;69560;52.206;21.018;2023-09-30T09:23:47;17.00;;;15.10;;
80247;SDS011;69560;52.206;21.018;2023-09-30T09:26:27;17.70;;;15.60;;
80247;SDS011;69560;52.206;21.018;2023-09-30T09:28:58;20.30;;;15.80;;
80247;SDS011;69560;52.206;21.018;2023-09-30T09:31:30;20.60;;;16.10;;
80247;SDS011;69560;52.206;21.018;2023-09-30T09:34:01;21.30;;;16.00;;
80247;SDS011;69560;52.206;21.018;2023-09-30T09:36:42;17.20;;;15.40;;
80247;SDS011;69560;52.206;21.018;2023-09-30T09:39:10;17.40;;;15.00;;
80247;SDS011;69560;52.206;21.018;2023-09-30T09:41:52;19.50;;;15.90;;
80247;SDS011;69560;52.206;21.018;2023-09-30T09:44:20;18.00;;;15.70;;
80247;SDS011;69560;52.206;21.018;2023-09-30T09:46:48;19.40;;;16.00;;
80247;SDS011;69560;52.206;21.018;2023-09-30T09:51:46;18.50;;;16.30;;
80247;SDS011;69560;52.206;21.018;2023-09-30T09:54:15;20.20;;;16.80;;
80247;SDS011;69560;52.206;21.018;2023-09-30T09:56:45;19.70;;;15.90;;
80247;SDS011;69560;52.206;21.018;2023-09-30T09:59:12;20.60;;;15.70;;
80247;SDS011;69560;52.206;21.018;2023-09-30T10:01:40;20.00;;;16.00;;
80247;SDS011;69560;52.206;21.018;2023-09-30T10:04:10;20.90;;;15.40;;
80247;SDS011;69560;52.206;21.018;2023-09-30T10:06:37;19.40;;;17.30;;
80247;SDS011;69560;52.206;21.018;2023-09-30T10:09:07;18.40;;;16.50;;
80247;SDS011;69560;52.206;21.018;2023-09-30T10:11:38;17.20;;;15.10;;
80247;SDS011;69560;52.206;21.018;2023-09-30T10:14:06;20.50;;;15.30;;
80247;SDS011;69560;52.206;21.018;2023-09-30T10:19:13;17.00;;;14.50;;
80247;SDS011;69560;52.206;21.018;2023-09-30T10:24:57;15.40;;;13.10;;
80247;SDS011;69560;52.206;21.018;2023-09-30T10:40:50;10.50;;;7.50;;
80247;SDS011;69560;52.206;21.018;2023-09-30T10:43:37;10.30;;;7.00;;
80247;SDS011;69560;52.206;21.018;2023-09-30T10:49:16;8.70;;;5.90;;
80247;SDS011;69560;52.206;21.018;2023-09-30T10:51:58;7.60;;;5.10;;
80247;SDS011;69560;52.206;21.018;2023-09-30T10:54:29;6.80;;;4.70;;
80247;SDS011;69560;52.206;21.018;2023-09-30T10:56:57;8.10;;;4.00;;
80247;SDS011;69560;52.206;21.018;2023-09-30T10:59:26;5.60;;;3.60;;
80247;SDS011;69560;52.206;21.018;2023-09-30T11:01:53;5.20;;;3.20;;
80247;SDS011;69560;52.206;21.018;2023-09-30T11:04:20;4.20;;;3.30;;
80247;SDS011;69560;52.206;21.018;2023-09-30T11:06:47;5.90;;;3.20;;
80247;SDS011;69560;52.206;21.018;2023-09-30T11:09:17;6.30;;;2.90;;
80247;SDS011;69560;52.206;21.018;2023-09-30T11:11:46;5.30;;;3.10;;
80247;SDS011;69560;52.206;21.018;2023-09-30T11:14:30;4.60;;;2.80;;
80247;SDS011;69560;52.206;21.018;2023-09-30T11:19:35;3.80;;;2.60;;
80247;SDS011;69560;52.206;21.018;2023-09-30T11:22:06;4.10;;;2.50;;
80247;SDS011;69560;52.206;21.018;2023-09-30T11:24:36;5.30;;;2.60;;
80247;SDS011;69560;52.206;21.018;2023-09-30T11:27:03;2.30;;;2.10;;
80247;SDS011;69560;52.206;21.018;2023-09-30T11:29:30;3.90;;;2.20;;
80247;SDS011;69560;52.206;21.018;2023-09-30T11:31:57;8.00;;;2.50;;
80247;SDS011;69560;52.206;21.018;2023-09-30T11:34:33;6.30;;;2.80;;
80247;SDS011;69560;52.206;21.018;2023-09-30T11:37:01;5.00;;;2.50;;
80247;SDS011;69560;52.206;21.018;2023-09-30T11:39:28;6.70;;;2.30;;
80247;SDS011;69560;52.206;21.018;2023-09-30T11:41:56;3.70;;;2.20;;
80247;SDS011;69560;52.206;21.018;2023-09-30T11:44:24;5.10;;;2.50;;
80247;SDS011;69560;52.206;21.018;2023-09-30T11:47:02;6.20;;;2.40;;
80247;SDS011;69560;52.206;21.018;2023-09-30T11:49:35;5.60;;;2.50;;
80247;SDS011;69560;52.206;21.018;2023-09-30T11:52:07;7.50;;;2.70;;
80247;SDS011;69560;52.206;21.018;2023-09-30T11:54:37;5.90;;;2.60;;
80247;SDS011;69560;52.206;21.018;2023-09-30T11:57:10;4.40;;;2.20;;
80247;SDS011;69560;52.206;21.018;2023-09-30T11:59:38;5.00;;;2.60;;
80247;SDS011;69560;52.206;21.018;2023-09-30T12:02:10;5.60;;;2.50;;
80247;SDS011;69560;52.206;21.018;2023-09-30T12:04:38;4.90;;;2.70;;
80247;SDS011;69560;52.206;21.018;2023-09-30T12:07:05;7.10;;;3.00;;
80247;SDS011;69560;52.206;21.018;2023-09-30T12:09:35;5.40;;;2.70;;
80247;SDS011;69560;52.206;21.018;2023-09-30T12:12:03;5.00;;;2.80;;
80247;SDS011;69560;52.206;21.018;2023-09-30T12:14:30;5.70;;;2.50;;
80247;SDS011;69560;52.206;21.018;2023-09-30T12:16:58;8.70;;;3.10;;
80247;SDS011;69560;52.206;21.018;2023-09-30T12:19:24;5.10;;;2.80;;
80247;SDS011;69560;52.206;21.018;2023-09-30T12:21:52;4.40;;;2.90;;
80247;SDS011;69560;52.206;21.018;2023-09-30T12:24:19;8.40;;;2.90;;
80247;SDS011;69560;52.206;21.018;2023-09-30T12:26:48;6.50;;;2.90;;
80247;SDS011;69560;52.206;21.018;2023-09-30T12:29:15;6.60;;;2.90;;
80247;SDS011;69560;52.206;21.018;2023-09-30T12:31:44;6.70;;;3.20;;
80247;SDS011;69560;52.206;21.018;2023-09-30T12:34:11;5.90;;;2.80;;
80247;SDS011;69560;52.206;21.018;2023-09-30T12:36:42;7.30;;;3.20;;
80247;SDS011;69560;52.206;21.018;2023-09-30T12:39:09;5.00;;;2.70;;
80247;SDS011;69560;52.206;21.018;2023-09-30T12:44:07;6.80;;;2.90;;
80247;SDS011;69560;52.206;21.018;2023-09-30T12:46:34;8.40;;;3.40;;
80247;SDS011;69560;52.206;21.018;2023-09-30T12:49:03;7.00;;;3.20;;
80247;SDS011;69560;52.206;21.018;2023-09-30T12:51:30;9.70;;;3.70;;
80247;SDS011;69560;52.206;21.018;2023-09-30T12:53:57;7.00;;;3.90;;
80247;SDS011;69560;52.206;21.018;2023-09-30T12:56:24;7.30;;;4.20;;
80247;SDS011;69560;52.206;21.018;2023-09-30T12:58:51;9.00;;;3.30;;
80247;SDS011;69560;52.206;21.018;2023-09-30T13:01:18;7.60;;;3.10;;
80247;SDS011;69560;52.206;21.018;2023-09-30T13:03:44;7.10;;;2.90;;
80247;SDS011;69560;52.206;21.018;2023-09-30T13:06:12;7.50;;;2.90;;
80247;SDS011;69560;52.206;21.018;2023-09-30T13:08:40;8.30;;;3.40;;
80247;SDS011;69560;52.206;21.018;2023-09-30T13:11:06;7.90;;;3.70;;
80247;SDS011;69560;52.206;21.018;2023-09-30T13:13:33;7.10;;;3.20;;
80247;SDS011;69560;52.206;21.018;2023-09-30T13:16:01;9.80;;;4.50;;
80247;SDS011;69560;52.206;21.018;2023-09-30T13:20:58;8.00;;;3.40;;
80247;SDS011;69560;52.206;21.018;2023-09-30T13:23:25;8.90;;;3.60;;
80247;SDS011;69560;52.206;21.018;2023-09-30T13:25:53;7.10;;;3.30;;
80247;SDS011;69560;52.206;21.018;2023-09-30T13:28:20;8.50;;;3.10;;
80247;SDS011;69560;52.206;21.018;2023-09-30T13:30:47;5.90;;;2.50;;
80247;SDS011;69560;52.206;21.018;2023-09-30T13:33:14;6.60;;;2.90;;
80247;SDS011;69560;52.206;21.018;2023-09-30T13:35:41;6.40;;;3.00;;
80247;SDS011;69560;52.206;21.018;2023-09-30T13:38:07;6.20;;;2.90;;
80247;SDS011;69560;52.206;21.018;2023-09-30T13:40:34;7.60;;;3.20;;
80247;SDS011;69560;52.206;21.018;2023-09-30T13:43:01;7.70;;;2.70;;
80247;SDS011;69560;52.206;21.018;2023-09-30T13:45:30;6.40;;;2.60;;
80247;SDS011;69560;52.206;21.018;2023-09-30T13:47:57;6.00;;;2.30;;
80247;SDS011;69560;52.206;21.018;2023-09-30T13:50:24;5.70;;;2.70;;
80247;SDS011;69560;52.206;21.018;2023-09-30T13:52:50;9.20;;;2.50;;
80247;SDS011;69560;52.206;21.018;2023-09-30T13:55:17;7.70;;;3.10;;
80247;SDS011;69560;52.206;21.018;2023-09-30T13:57:45;5.40;;;2.40;;
80247;SDS011;69560;52.206;21.018;2023-09-30T14:00:13;5.40;;;2.40;;
80247;SDS011;69560;52.206;21.018;2023-09-30T14:02:40;7.90;;;2.70;;
80247;SDS011;69560;52.206;21.018;2023-09-30T14:05:07;5.70;;;2.00;;
80247;SDS011;69560;52.206;21.018;2023-09-30T14:07:36;6.60;;;2.10;;
80247;SDS011;69560;52.206;21.018;2023-09-30T14:10:03;9.90;;;2.60;;
80247;SDS011;69560;52.206;21.018;2023-09-30T14:12:30;9.00;;;2.20;;
80247;SDS011;69560;52.206;21.018;2023-09-30T14:14:57;10.30;;;4.10;;
80247;SDS011;69560;52.206;21.018;2023-09-30T14:17:24;17.20;;;12.70;;
80247;SDS011;69560;52.206;21.018;2023-09-30T14:19:51;12.10;;;7.30;;
80247;SDS011;69560;52.206;21.018;2023-09-30T14:22:18;11.00;;;4.60;;
80247;SDS011;69560;52.206;21.018;2023-09-30T14:24:45;16.60;;;10.50;;
80247;SDS011;69560;52.206;21.018;2023-09-30T14:27:11;10.20;;;4.70;;
80247;SDS011;69560;52.206;21.018;2023-09-30T14:29:40;8.00;;;3.20;;
80247;SDS011;69560;52.206;21.018;2023-09-30T14:32:06;7.10;;;3.50;;
80247;SDS011;69560;52.206;21.018;2023-09-30T14:34:33;6.20;;;2.60;;
80247;SDS011;69560;52.206;21.018;2023-09-30T14:36:59;10.70;;;2.80;;
80247;SDS011;69560;52.206;21.018;2023-09-30T14:39:26;5.30;;;2.40;;
80247;SDS011;69560;52.206;21.018;2023-09-30T14:41:53;6.60;;;2.50;;
80247;SDS011;69560;52.206;21.018;2023-09-30T14:44:19;7.80;;;2.80;;
80247;SDS011;69560;52.206;21.018;2023-09-30T14:46:48;8.60;;;2.80;;
80247;SDS011;69560;52.206;21.018;2023-09-30T14:49:14;6.60;;;3.00;;
80247;SDS011;69560;52.206;21.018;2023-09-30T14:51:41;6.80;;;2.60;;
80247;SDS011;69560;52.206;21.018;2023-09-30T14:54:08;6.90;;;2.90;;